sensor_id;sensor_type;location;lat;lon;timestamp;pressure;altitude;pressure_sealevel;temperature;humidity
23446;BME280;11895;48.738;9.320;2022-08-27T00:01:53;98530.69;;;21.74;90.43
23446;BME280;11895;48.738;9.320;2022-08-27T00:04:21;98532.13;;;21.78;90.61
23446;BME280;11895;48.738;9.320;2022-08-27T00:06:48;98528.66;;;21.86;89.26
23446;BME280;11895;48.738;9.320;2022-08-27T00:09:16;98533.97;;;21.88;89.74
23446;BME280;11895;48.738;9.320;2022-08-27T00:11:53;98532.94;;;21.89;91.23
23446;BME280;11895;48.738;9.320;2022-08-27T00:14:21;98537.00;;;21.85;90.00
23446;BME280;11895;48.738;9.320;2022-08-27T00:16:49;98534.88;;;21.78;90.70
23446;BME280;11895;48.738;9.320;2022-08-27T00:19:16;98532.25;;;21.87;89.44
23446;BME280;11895;48.738;9.320;2022-08-27T00:21:44;98526.28;;;22.01;88.26
23446;BME280;11895;48.738;9.320;2022-08-27T00:24:12;98525.38;;;22.10;85.18
23446;BME280;11895;48.738;9.320;2022-08-27T00:26:40;98518.63;;;21.95;87.15
23446;BME280;11895;48.738;9.320;2022-08-27T00:29:09;98521.94;;;21.98;76.49
23446;BME280;11895;48.738;9.320;2022-08-27T00:34:03;98528.69;;;21.76;87.82
23446;BME280;11895;48.738;9.320;2022-08-27T00:36:33;98525.72;;;21.97;84.52
23446;BME280;11895;48.738;9.320;2022-08-27T00:39:02;98530.13;;;21.71;88.35
23446;BME280;11895;48.738;9.320;2022-08-27T00:41:29;98530.41;;;21.77;87.89
23446;BME280;11895;48.738;9.320;2022-08-27T00:43:59;98532.34;;;21.95;88.78
23446;BME280;11895;48.738;9.320;2022-08-27T00:46:41;98526.63;;;21.78;88.52
23446;BME280;11895;48.738;9.320;2022-08-27T00:54:45;98520.38;;;21.96;88.89
23446;BME280;11895;48.738;9.320;2022-08-27T00:57:16;98515.56;;;22.07;88.83
23446;BME280;11895;48.738;9.320;2022-08-27T00:59:50;98520.19;;;22.17;88.71
23446;BME280;11895;48.738;9.320;2022-08-27T01:02:18;98522.22;;;22.15;88.00
23446;BME280;11895;48.738;9.320;2022-08-27T01:04:51;98514.41;;;22.20;85.85
23446;BME280;11895;48.738;9.320;2022-08-27T01:07:25;98511.66;;;22.20;73.32
23446;BME280;11895;48.738;9.320;2022-08-27T01:09:56;98503.09;;;22.23;86.85
23446;BME280;11895;48.738;9.320;2022-08-27T01:12:26;98510.31;;;22.24;84.03
23446;BME280;11895;48.738;9.320;2022-08-27T01:14:56;98501.31;;;22.31;82.75
23446;BME280;11895;48.738;9.320;2022-08-27T01:17:24;98503.66;;;22.26;77.31
23446;BME280;11895;48.738;9.320;2022-08-27T01:19:54;98508.19;;;22.18;81.89
23446;BME280;11895;48.738;9.320;2022-08-27T01:25:15;98498.78;;;22.20;81.79
23446;BME280;11895;48.738;9.320;2022-08-27T01:27:45;98495.72;;;22.23;82.93
23446;BME280;11895;48.738;9.320;2022-08-27T01:30:17;98490.16;;;22.15;84.98
23446;BME280;11895;48.738;9.320;2022-08-27T01:32:46;98496.19;;;22.19;83.88
23446;BME280;11895;48.738;9.320;2022-08-27T01:35:16;98492.13;;;22.23;83.01
23446;BME280;11895;48.738;9.320;2022-08-27T01:37:46;98504.56;;;22.17;84.59
23446;BME280;11895;48.738;9.320;2022-08-27T01:40:18;98507.78;;;22.13;81.63
23446;BME280;11895;48.738;9.320;2022-08-27T01:42:49;98501.84;;;22.07;86.50
23446;BME280;11895;48.738;9.320;2022-08-27T01:45:22;98506.22;;;22.00;86.84
23446;BME280;11895;48.738;9.320;2022-08-27T01:47:52;98507.22;;;21.99;87.59
23446;BME280;11895;48.738;9.320;2022-08-27T01:50:23;98505.25;;;21.92;88.04
23446;BME280;11895;48.738;9.320;2022-08-27T01:52:54;98508.81;;;22.02;87.28
23446;BME280;11895;48.738;9.320;2022-08-27T01:55:25;98500.34;;;21.95;87.55
23446;BME280;11895;48.738;9.320;2022-08-27T01:57:53;98503.31;;;22.02;85.12
23446;BME280;11895;48.738;9.320;2022-08-27T02:00:27;98507.78;;;22.03;86.38
23446;BME280;11895;48.738;9.320;2022-08-27T02:02:58;98495.66;;;22.05;84.45
23446;BME280;11895;48.738;9.320;2022-08-27T02:05:26;98499.53;;;22.13;83.03
23446;BME280;11895;48.738;9.320;2022-08-27T02:07:54;98498.78;;;22.20;76.17
23446;BME280;11895;48.738;9.320;2022-08-27T02:10:25;98489.53;;;22.21;78.57
23446;BME280;11895;48.738;9.320;2022-08-27T02:12:57;98490.69;;;22.19;85.00
23446;BME280;11895;48.738;9.320;2022-08-27T02:15:25;98495.31;;;22.18;85.04
23446;BME280;11895;48.738;9.320;2022-08-27T02:17:54;98499.72;;;22.01;84.97
23446;BME280;11895;48.738;9.320;2022-08-27T02:20:22;98502.50;;;21.92;85.87
23446;BME280;11895;48.738;9.320;2022-08-27T02:22:54;98495.78;;;21.76;87.18
23446;BME280;11895;48.738;9.320;2022-08-27T02:25:21;98496.34;;;22.17;84.89
23446;BME280;11895;48.738;9.320;2022-08-27T02:27:49;98492.16;;;22.13;80.49
23446;BME280;11895;48.738;9.320;2022-08-27T02:30:19;98498.44;;;21.96;86.90
23446;BME280;11895;48.738;9.320;2022-08-27T02:32:48;98501.84;;;21.70;85.50
23446;BME280;11895;48.738;9.320;2022-08-27T02:35:18;98498.63;;;21.85;82.25
23446;BME280;11895;48.738;9.320;2022-08-27T02:37:46;98494.88;;;21.86;86.65
23446;BME280;11895;48.738;9.320;2022-08-27T02:40:16;98497.44;;;21.97;85.54
23446;BME280;11895;48.738;9.320;2022-08-27T02:42:45;98495.09;;;22.02;85.94
23446;BME280;11895;48.738;9.320;2022-08-27T02:45:14;98492.75;;;22.07;78.45
23446;BME280;11895;48.738;9.320;2022-08-27T02:47:41;98493.38;;;22.28;79.45
23446;BME280;11895;48.738;9.320;2022-08-27T02:50:09;98495.59;;;22.43;79.71
23446;BME280;11895;48.738;9.320;2022-08-27T02:52:37;98498.78;;;22.20;82.37
23446;BME280;11895;48.738;9.320;2022-08-27T02:55:13;98499.28;;;22.33;82.02
23446;BME280;11895;48.738;9.320;2022-08-27T02:57:44;98498.97;;;22.37;82.23
23446;BME280;11895;48.738;9.320;2022-08-27T03:00:14;98497.78;;;22.21;83.47
23446;BME280;11895;48.738;9.320;2022-08-27T03:02:46;98491.72;;;22.08;84.26
23446;BME280;11895;48.738;9.320;2022-08-27T03:05:20;98493.84;;;22.24;84.02
23446;BME280;11895;48.738;9.320;2022-08-27T03:07:48;98494.75;;;22.42;83.88
23446;BME280;11895;48.738;9.320;2022-08-27T03:10:17;98496.63;;;22.42;82.25
23446;BME280;11895;48.738;9.320;2022-08-27T03:12:47;98481.28;;;22.49;81.84
23446;BME280;11895;48.738;9.320;2022-08-27T03:15:17;98480.91;;;22.44;83.83
23446;BME280;11895;48.738;9.320;2022-08-27T03:17:44;98486.44;;;22.52;82.04
23446;BME280;11895;48.738;9.320;2022-08-27T03:20:31;98486.22;;;22.45;80.79
23446;BME280;11895;48.738;9.320;2022-08-27T03:22:59;98480.16;;;22.42;81.91
23446;BME280;11895;48.738;9.320;2022-08-27T03:25:26;98485.91;;;22.48;81.60
23446;BME280;11895;48.738;9.320;2022-08-27T03:27:55;98486.31;;;22.53;82.73
23446;BME280;11895;48.738;9.320;2022-08-27T03:30:25;98482.69;;;22.53;80.53
23446;BME280;11895;48.738;9.320;2022-08-27T03:32:54;98489.28;;;22.60;77.44
23446;BME280;11895;48.738;9.320;2022-08-27T03:35:21;98486.66;;;22.68;79.02
23446;BME280;11895;48.738;9.320;2022-08-27T03:37:49;98487.81;;;22.66;80.94
23446;BME280;11895;48.738;9.320;2022-08-27T03:40:16;98480.03;;;22.61;78.10
23446;BME280;11895;48.738;9.320;2022-08-27T03:42:45;98484.28;;;22.73;76.95
23446;BME280;11895;48.738;9.320;2022-08-27T03:45:12;98490.38;;;22.67;75.44
23446;BME280;11895;48.738;9.320;2022-08-27T03:47:40;98485.38;;;22.80;71.41
23446;BME280;11895;48.738;9.320;2022-08-27T03:50:07;98478.97;;;22.90;69.80
23446;BME280;11895;48.738;9.320;2022-08-27T03:52:36;98474.34;;;22.90;73.44
23446;BME280;11895;48.738;9.320;2022-08-27T03:55:09;98489.09;;;22.89;75.80
23446;BME280;11895;48.738;9.320;2022-08-27T03:57:37;98476.63;;;22.95;74.67
23446;BME280;11895;48.738;9.320;2022-08-27T04:00:07;98476.22;;;22.90;64.57
23446;BME280;11895;48.738;9.320;2022-08-27T04:02:43;98483.91;;;23.04;77.74
23446;BME280;11895;48.738;9.320;2022-08-27T04:05:12;98474.34;;;23.08;75.65
23446;BME280;11895;48.738;9.320;2022-08-27T04:07:40;98473.94;;;23.03;73.46
23446;BME280;11895;48.738;9.320;2022-08-27T04:10:10;98472.19;;;22.84;75.03
23446;BME280;11895;48.738;9.320;2022-08-27T04:12:38;98474.66;;;22.87;78.65
23446;BME280;11895;48.738;9.320;2022-08-27T04:15:07;98476.66;;;22.85;77.63
23446;BME280;11895;48.738;9.320;2022-08-27T04:17:35;98479.06;;;22.98;79.32
23446;BME280;11895;48.738;9.320;2022-08-27T04:20:05;98478.34;;;22.96;75.08
23446;BME280;11895;48.738;9.320;2022-08-27T04:22:54;98485.81;;;23.03;75.97
23446;BME280;11895;48.738;9.320;2022-08-27T04:25:21;98489.78;;;23.09;75.82
23446;BME280;11895;48.738;9.320;2022-08-27T04:27:49;98485.63;;;23.05;69.75
23446;BME280;11895;48.738;9.320;2022-08-27T04:30:16;98485.16;;;23.09;75.65
23446;BME280;11895;48.738;9.320;2022-08-27T04:32:45;98492.72;;;23.07;72.30
23446;BME280;11895;48.738;9.320;2022-08-27T04:35:12;98483.06;;;23.03;68.83
23446;BME280;11895;48.738;9.320;2022-08-27T04:37:39;98490.50;;;23.11;73.14
23446;BME280;11895;48.738;9.320;2022-08-27T04:40:07;98489.25;;;22.88;75.70
23446;BME280;11895;48.738;9.320;2022-08-27T04:42:35;98491.78;;;22.99;70.58
23446;BME280;11895;48.738;9.320;2022-08-27T04:45:03;98496.88;;;22.94;69.44
23446;BME280;11895;48.738;9.320;2022-08-27T04:47:31;98497.34;;;23.07;69.85
23446;BME280;11895;48.738;9.320;2022-08-27T04:49:58;98490.50;;;23.11;68.89
23446;BME280;11895;48.738;9.320;2022-08-27T04:52:27;98496.69;;;23.13;75.50
23446;BME280;11895;48.738;9.320;2022-08-27T04:54:55;98491.06;;;22.97;70.29
23446;BME280;11895;48.738;9.320;2022-08-27T04:57:24;98488.94;;;22.91;68.26
23446;BME280;11895;48.738;9.320;2022-08-27T04:59:51;98488.25;;;22.89;73.21
23446;BME280;11895;48.738;9.320;2022-08-27T05:02:18;98491.00;;;22.89;76.67
23446;BME280;11895;48.738;9.320;2022-08-27T05:04:45;98491.41;;;22.66;77.55
23446;BME280;11895;48.738;9.320;2022-08-27T05:07:13;98501.84;;;22.80;70.26
23446;BME280;11895;48.738;9.320;2022-08-27T05:09:40;98497.78;;;22.84;77.12
23446;BME280;11895;48.738;9.320;2022-08-27T05:12:07;98499.91;;;22.73;74.32
23446;BME280;11895;48.738;9.320;2022-08-27T05:14:34;98491.25;;;22.86;71.12
23446;BME280;11895;48.738;9.320;2022-08-27T05:17:02;98501.84;;;22.80;77.05
23446;BME280;11895;48.738;9.320;2022-08-27T05:19:29;98506.72;;;22.87;72.26
23446;BME280;11895;48.738;9.320;2022-08-27T05:21:57;98496.91;;;22.66;79.04
23446;BME280;11895;48.738;9.320;2022-08-27T05:24:24;98496.13;;;22.74;78.82
23446;BME280;11895;48.738;9.320;2022-08-27T05:26:51;98494.00;;;22.86;75.31
23446;BME280;11895;48.738;9.320;2022-08-27T05:29:19;98489.88;;;22.99;74.34
23446;BME280;11895;48.738;9.320;2022-08-27T05:31:47;98490.09;;;23.06;72.54
23446;BME280;11895;48.738;9.320;2022-08-27T05:34:15;98499.44;;;22.95;76.45
23446;BME280;11895;48.738;9.320;2022-08-27T05:36:48;98487.31;;;22.98;77.50
23446;BME280;11895;48.738;9.320;2022-08-27T05:39:15;98484.38;;;22.99;77.31
23446;BME280;11895;48.738;9.320;2022-08-27T05:41:43;98488.06;;;23.08;76.07
23446;BME280;11895;48.738;9.320;2022-08-27T05:44:10;98490.66;;;22.92;67.83
23446;BME280;11895;48.738;9.320;2022-08-27T05:46:57;98485.63;;;22.87;78.89
23446;BME280;11895;48.738;9.320;2022-08-27T05:49:24;98485.63;;;22.87;77.99
23446;BME280;11895;48.738;9.320;2022-08-27T05:51:51;98484.78;;;23.04;71.71
23446;BME280;11895;48.738;9.320;2022-08-27T05:54:19;98486.56;;;22.96;77.81
23446;BME280;11895;48.738;9.320;2022-08-27T05:56:47;98490.25;;;23.22;74.84
23446;BME280;11895;48.738;9.320;2022-08-27T05:59:16;98496.59;;;23.41;76.46
23446;BME280;11895;48.738;9.320;2022-08-27T06:02:03;98486.22;;;23.34;76.78
23446;BME280;11895;48.738;9.320;2022-08-27T06:04:32;98488.34;;;23.41;75.77
23446;BME280;11895;48.738;9.320;2022-08-27T06:06:59;98497.25;;;23.60;74.33
23446;BME280;11895;48.738;9.320;2022-08-27T06:09:27;98497.47;;;23.67;64.83
23446;BME280;11895;48.738;9.320;2022-08-27T06:11:57;98503.59;;;23.79;63.54
23446;BME280;11895;48.738;9.320;2022-08-27T06:14:26;98504.53;;;23.96;68.11
23446;BME280;11895;48.738;9.320;2022-08-27T06:16:54;98499.03;;;23.96;73.47
23446;BME280;11895;48.738;9.320;2022-08-27T06:19:22;98498.72;;;23.99;65.13
23446;BME280;11895;48.738;9.320;2022-08-27T06:21:49;98508.56;;;23.83;73.64
23446;BME280;11895;48.738;9.320;2022-08-27T06:24:40;98504.28;;;24.15;71.34
23446;BME280;11895;48.738;9.320;2022-08-27T06:27:10;98505.59;;;24.03;71.65
23446;BME280;11895;48.738;9.320;2022-08-27T06:29:40;98514.91;;;23.76;72.56
23446;BME280;11895;48.738;9.320;2022-08-27T06:32:07;98509.03;;;24.05;70.76
23446;BME280;11895;48.738;9.320;2022-08-27T06:34:36;98509.28;;;24.20;68.20
23446;BME280;11895;48.738;9.320;2022-08-27T06:37:04;98510.56;;;24.33;69.80
23446;BME280;11895;48.738;9.320;2022-08-27T06:39:32;98512.00;;;24.46;70.88
23446;BME280;11895;48.738;9.320;2022-08-27T06:42:03;98512.38;;;24.59;69.35
23446;BME280;11895;48.738;9.320;2022-08-27T06:44:32;98511.84;;;24.55;66.24
23446;BME280;11895;48.738;9.320;2022-08-27T06:46:59;98512.84;;;24.46;69.69
23446;BME280;11895;48.738;9.320;2022-08-27T06:49:29;98508.75;;;24.50;61.65
23446;BME280;11895;48.738;9.320;2022-08-27T06:51:57;98514.28;;;24.58;67.19
23446;BME280;11895;48.738;9.320;2022-08-27T06:54:24;98520.31;;;24.62;66.88
23446;BME280;11895;48.738;9.320;2022-08-27T06:56:52;98513.91;;;24.53;64.31
23446;BME280;11895;48.738;9.320;2022-08-27T06:59:19;98517.56;;;24.70;68.36
23446;BME280;11895;48.738;9.320;2022-08-27T07:01:48;98522.56;;;24.67;69.20
23446;BME280;11895;48.738;9.320;2022-08-27T07:04:20;98517.19;;;24.49;71.07
23446;BME280;11895;48.738;9.320;2022-08-27T07:07:02;98517.00;;;24.50;70.96
23446;BME280;11895;48.738;9.320;2022-08-27T07:09:30;98516.50;;;24.47;70.79
23446;BME280;11895;48.738;9.320;2022-08-27T07:12:00;98517.50;;;24.46;70.50
23446;BME280;11895;48.738;9.320;2022-08-27T07:14:29;98511.81;;;24.39;74.93
23446;BME280;11895;48.738;9.320;2022-08-27T07:17:04;98521.84;;;24.22;73.50
23446;BME280;11895;48.738;9.320;2022-08-27T07:19:36;98512.78;;;24.30;74.17
23446;BME280;11895;48.738;9.320;2022-08-27T07:22:07;98512.34;;;24.43;72.12
23446;BME280;11895;48.738;9.320;2022-08-27T07:24:35;98523.59;;;24.66;72.25
23446;BME280;11895;48.738;9.320;2022-08-27T07:27:04;98521.22;;;24.79;71.46
23446;BME280;11895;48.738;9.320;2022-08-27T07:29:32;98519.31;;;24.79;70.28
23446;BME280;11895;48.738;9.320;2022-08-27T07:31:59;98529.31;;;24.72;70.73
23446;BME280;11895;48.738;9.320;2022-08-27T07:34:26;98531.53;;;24.34;72.74
23446;BME280;11895;48.738;9.320;2022-08-27T07:36:54;98534.25;;;24.60;71.51
23446;BME280;11895;48.738;9.320;2022-08-27T07:39:21;98539.25;;;24.57;71.79
23446;BME280;11895;48.738;9.320;2022-08-27T07:41:48;98536.50;;;24.57;71.72
23446;BME280;11895;48.738;9.320;2022-08-27T07:44:34;98540.09;;;24.23;72.16
23446;BME280;11895;48.738;9.320;2022-08-27T07:47:02;98548.63;;;24.12;74.09
23446;BME280;11895;48.738;9.320;2022-08-27T07:49:29;98542.81;;;24.49;72.05
23446;BME280;11895;48.738;9.320;2022-08-27T07:51:57;98530.88;;;24.83;70.23
23446;BME280;11895;48.738;9.320;2022-08-27T07:54:25;98541.06;;;24.99;70.40
23446;BME280;11895;48.738;9.320;2022-08-27T07:56:53;98541.13;;;24.65;69.63
23446;BME280;11895;48.738;9.320;2022-08-27T07:59:23;98532.84;;;25.07;69.24
23446;BME280;11895;48.738;9.320;2022-08-27T08:01:54;98541.09;;;25.07;67.86
23446;BME280;11895;48.738;9.320;2022-08-27T08:04:23;98553.19;;;25.30;68.36
23446;BME280;11895;48.738;9.320;2022-08-27T08:06:51;98547.13;;;25.19;67.96
23446;BME280;11895;48.738;9.320;2022-08-27T08:09:20;98551.28;;;25.47;68.04
23446;BME280;11895;48.738;9.320;2022-08-27T08:11:50;98551.81;;;25.34;70.46
23446;BME280;11895;48.738;9.320;2022-08-27T08:14:19;98554.56;;;25.26;68.53
23446;BME280;11895;48.738;9.320;2022-08-27T08:16:46;98550.94;;;25.18;71.16
23446;BME280;11895;48.738;9.320;2022-08-27T08:19:14;98552.50;;;25.28;69.65
23446;BME280;11895;48.738;9.320;2022-08-27T08:21:41;98545.28;;;25.44;68.92
23446;BME280;11895;48.738;9.320;2022-08-27T08:24:09;98553.91;;;25.49;68.30
23446;BME280;11895;48.738;9.320;2022-08-27T08:26:36;98551.81;;;25.43;68.76
23446;BME280;11895;48.738;9.320;2022-08-27T08:29:03;98545.94;;;25.37;68.33
23446;BME280;11895;48.738;9.320;2022-08-27T08:31:31;98566.28;;;25.61;67.38
23446;BME280;11895;48.738;9.320;2022-08-27T08:33:58;98564.72;;;25.42;68.34
23446;BME280;11895;48.738;9.320;2022-08-27T08:36:25;98565.25;;;25.46;68.47
23446;BME280;11895;48.738;9.320;2022-08-27T08:38:53;98563.88;;;25.66;69.01
23446;BME280;11895;48.738;9.320;2022-08-27T08:43:58;98565.78;;;25.74;66.52
23446;BME280;11895;48.738;9.320;2022-08-27T08:46:36;98570.09;;;25.84;66.25
23446;BME280;11895;48.738;9.320;2022-08-27T08:53:06;98575.94;;;25.57;67.27
23446;BME280;11895;48.738;9.320;2022-08-27T09:01:18;98581.81;;;25.46;72.61
23446;BME280;11895;48.738;9.320;2022-08-27T09:03:54;98589.03;;;25.55;68.34
23446;BME280;11895;48.738;9.320;2022-08-27T09:09:36;98584.56;;;25.70;79.43
23446;BME280;11895;48.738;9.320;2022-08-27T09:12:13;98582.50;;;25.56;91.18
23446;BME280;11895;48.738;9.320;2022-08-27T09:19:28;98599.31;;;24.35;100.00
23446;BME280;11895;48.738;9.320;2022-08-27T09:25:08;98598.69;;;23.46;100.00
23446;BME280;11895;48.738;9.320;2022-08-27T09:27:50;98595.84;;;23.38;100.00
23446;BME280;11895;48.738;9.320;2022-08-27T09:30:26;98603.53;;;23.52;100.00
23446;BME280;11895;48.738;9.320;2022-08-27T09:33:01;98598.03;;;23.34;100.00
23446;BME280;11895;48.738;9.320;2022-08-27T09:35:42;98604.09;;;23.38;100.00
23446;BME280;11895;48.738;9.320;2022-08-27T09:38:26;98603.78;;;23.41;100.00
23446;BME280;11895;48.738;9.320;2022-08-27T09:41:01;98612.97;;;23.67;100.00
23446;BME280;11895;48.738;9.320;2022-08-27T09:43:33;98607.44;;;23.49;100.00
23446;BME280;11895;48.738;9.320;2022-08-27T09:46:22;98604.09;;;23.55;100.00
23446;BME280;11895;48.738;9.320;2022-08-27T09:48:53;98602.19;;;23.56;100.00
23446;BME280;11895;48.738;9.320;2022-08-27T09:51:26;98609.25;;;23.76;100.00
23446;BME280;11895;48.738;9.320;2022-08-27T09:54:00;98604.84;;;23.83;100.00
23446;BME280;11895;48.738;9.320;2022-08-27T09:56:37;98605.28;;;23.97;100.00
23446;BME280;11895;48.738;9.320;2022-08-27T09:59:14;98596.00;;;23.72;100.00
23446;BME280;11895;48.738;9.320;2022-08-27T10:01:54;98589.16;;;23.58;100.00
23446;BME280;11895;48.738;9.320;2022-08-27T10:05:02;98596.00;;;23.72;100.00
23446;BME280;11895;48.738;9.320;2022-08-27T10:08:01;98591.09;;;23.83;100.00
23446;BME280;11895;48.738;9.320;2022-08-27T10:10:56;98591.72;;;23.77;100.00
23446;BME280;11895;48.738;9.320;2022-08-27T10:20:06;98590.09;;;23.49;100.00
23446;BME280;11895;48.738;9.320;2022-08-27T10:23:27;98596.78;;;23.28;100.00
23446;BME280;11895;48.738;9.320;2022-08-27T10:26:13;98603.22;;;23.55;100.00
23446;BME280;11895;48.738;9.320;2022-08-27T10:43:54;98605.75;;;23.13;100.00
23446;BME280;11895;48.738;9.320;2022-08-27T10:53:24;98621.66;;;23.09;100.00
23446;BME280;11895;48.738;9.320;2022-08-27T10:56:23;98625.22;;;22.92;100.00
23446;BME280;11895;48.738;9.320;2022-08-27T11:02:27;98620.38;;;22.58;100.00
23446;BME280;11895;48.738;9.320;2022-08-27T11:05:14;98622.78;;;22.61;100.00
23446;BME280;11895;48.738;9.320;2022-08-27T11:08:36;98621.94;;;22.61;100.00
23446;BME280;11895;48.738;9.320;2022-08-27T11:14:35;98624.50;;;22.62;100.00
23446;BME280;11895;48.738;9.320;2022-08-27T11:17:53;98625.31;;;22.72;100.00
23446;BME280;11895;48.738;9.320;2022-08-27T11:21:01;98627.59;;;22.77;100.00
23446;BME280;11895;48.738;9.320;2022-08-27T11:23:50;98629.09;;;22.71;100.00
23446;BME280;11895;48.738;9.320;2022-08-27T11:26:22;98630.00;;;22.62;100.00
23446;BME280;11895;48.738;9.320;2022-08-27T11:28:54;98635.38;;;22.81;100.00
23446;BME280;11895;48.738;9.320;2022-08-27T11:31:35;98631.75;;;22.63;100.00
23446;BME280;11895;48.738;9.320;2022-08-27T11:34:32;98642.06;;;22.79;100.00
23446;BME280;11895;48.738;9.320;2022-08-27T11:37:27;98643.78;;;22.80;100.00
23446;BME280;11895;48.738;9.320;2022-08-27T11:43:22;98624.63;;;22.70;100.00
23446;BME280;11895;48.738;9.320;2022-08-27T11:46:00;98627.66;;;22.67;100.00
23446;BME280;11895;48.738;9.320;2022-08-27T11:48:35;98630.22;;;22.78;100.00
23446;BME280;11895;48.738;9.320;2022-08-27T11:51:31;98626.69;;;22.86;100.00
23446;BME280;11895;48.738;9.320;2022-08-27T11:54:09;98616.09;;;22.73;100.00
23446;BME280;11895;48.738;9.320;2022-08-27T11:56:50;98628.91;;;22.82;100.00
23446;BME280;11895;48.738;9.320;2022-08-27T11:59:32;98624.00;;;22.76;100.00
23446;BME280;11895;48.738;9.320;2022-08-27T12:02:25;98623.41;;;22.82;100.00
23446;BME280;11895;48.738;9.320;2022-08-27T12:05:32;98612.63;;;22.99;100.00
23446;BME280;11895;48.738;9.320;2022-08-27T12:08:37;98624.41;;;23.09;100.00
23446;BME280;11895;48.738;9.320;2022-08-27T12:14:30;98621.28;;;23.22;100.00
23446;BME280;11895;48.738;9.320;2022-08-27T12:31:18;98622.00;;;23.42;100.00
23446;BME280;11895;48.738;9.320;2022-08-27T12:37:43;98639.19;;;24.23;100.00
23446;BME280;11895;48.738;9.320;2022-08-27T12:40:30;98614.78;;;24.02;100.00
23446;BME280;11895;48.738;9.320;2022-08-27T13:08:58;98620.84;;;21.00;100.00
23446;BME280;11895;48.738;9.320;2022-08-27T13:19:05;98630.22;;;21.85;100.00
23446;BME280;11895;48.738;9.320;2022-08-27T13:25:31;98626.03;;;22.47;100.00
23446;BME280;11895;48.738;9.320;2022-08-27T13:28:14;98611.41;;;22.09;100.00
23446;BME280;11895;48.738;9.320;2022-08-27T13:30:46;98609.69;;;22.08;100.00
23446;BME280;11895;48.738;9.320;2022-08-27T13:33:22;98615.09;;;21.80;100.00
23446;BME280;11895;48.738;9.320;2022-08-27T13:35:56;98612.78;;;21.86;100.00
23446;BME280;11895;48.738;9.320;2022-08-27T13:38:26;98616.88;;;21.52;100.00
23446;BME280;11895;48.738;9.320;2022-08-27T13:41:10;98612.69;;;21.58;100.00
23446;BME280;11895;48.738;9.320;2022-08-27T13:43:48;98617.88;;;21.42;100.00
23446;BME280;11895;48.738;9.320;2022-08-27T13:46:25;98614.59;;;22.04;100.00
23446;BME280;11895;48.738;9.320;2022-08-27T13:48:58;98610.50;;;22.28;100.00
23446;BME280;11895;48.738;9.320;2022-08-27T13:51:30;98613.63;;;22.43;100.00
23446;BME280;11895;48.738;9.320;2022-08-27T13:54:07;98602.66;;;22.70;100.00
23446;BME280;11895;48.738;9.320;2022-08-27T13:59:25;98611.63;;;23.18;100.00
23446;BME280;11895;48.738;9.320;2022-08-27T14:05:04;98590.56;;;23.44;100.00
23446;BME280;11895;48.738;9.320;2022-08-27T14:07:36;98583.34;;;23.61;100.00
23446;BME280;11895;48.738;9.320;2022-08-27T14:13:10;98572.06;;;23.28;100.00
23446;BME280;11895;48.738;9.320;2022-08-27T14:15:54;98575.66;;;24.43;94.79
23446;BME280;11895;48.738;9.320;2022-08-27T14:18:34;98569.47;;;24.99;83.91
23446;BME280;11895;48.738;9.320;2022-08-27T14:21:22;98555.25;;;25.69;76.71
23446;BME280;11895;48.738;9.320;2022-08-27T14:23:51;98566.84;;;26.45;74.93
23446;BME280;11895;48.738;9.320;2022-08-27T14:26:20;98562.69;;;26.88;71.61
23446;BME280;11895;48.738;9.320;2022-08-27T14:28:47;98556.63;;;27.47;66.99
23446;BME280;11895;48.738;9.320;2022-08-27T14:31:15;98552.25;;;28.42;66.23
23446;BME280;11895;48.738;9.320;2022-08-27T14:33:42;98556.81;;;28.06;62.31
23446;BME280;11895;48.738;9.320;2022-08-27T14:36:13;98545.16;;;27.96;62.42
23446;BME280;11895;48.738;9.320;2022-08-27T14:38:45;98547.13;;;27.87;61.45
23446;BME280;11895;48.738;9.320;2022-08-27T14:41:14;98544.38;;;28.02;61.28
23446;BME280;11895;48.738;9.320;2022-08-27T14:43:45;98536.47;;;27.38;62.97
23446;BME280;11895;48.738;9.320;2022-08-27T14:46:28;98541.66;;;27.79;64.02
23446;BME280;11895;48.738;9.320;2022-08-27T14:48:59;98541.09;;;27.60;62.73
23446;BME280;11895;48.738;9.320;2022-08-27T14:51:29;98539.53;;;27.66;62.37
23446;BME280;11895;48.738;9.320;2022-08-27T14:53:58;98544.94;;;27.59;62.93
23446;BME280;11895;48.738;9.320;2022-08-27T14:56:25;98550.19;;;27.92;64.10
23446;BME280;11895;48.738;9.320;2022-08-27T14:58:52;98555.78;;;30.03;58.58
23446;BME280;11895;48.738;9.320;2022-08-27T15:01:23;98554.19;;;31.72;50.75
23446;BME280;11895;48.738;9.320;2022-08-27T15:03:53;98553.47;;;34.16;45.13
23446;BME280;11895;48.738;9.320;2022-08-27T15:06:21;98557.56;;;33.57;43.91
23446;BME280;11895;48.738;9.320;2022-08-27T15:08:50;98559.19;;;34.46;42.37
23446;BME280;11895;48.738;9.320;2022-08-27T15:11:22;98558.84;;;34.97;40.36
23446;BME280;11895;48.738;9.320;2022-08-27T15:13:52;98553.13;;;34.06;42.60
23446;BME280;11895;48.738;9.320;2022-08-27T15:16:35;98557.09;;;33.60;43.33
23446;BME280;11895;48.738;9.320;2022-08-27T15:19:07;98556.63;;;33.31;44.18
23446;BME280;11895;48.738;9.320;2022-08-27T15:21:38;98555.50;;;33.00;45.61
23446;BME280;11895;48.738;9.320;2022-08-27T15:24:32;98554.41;;;31.90;47.29
23446;BME280;11895;48.738;9.320;2022-08-27T15:27:08;98553.47;;;31.30;46.07
23446;BME280;11895;48.738;9.320;2022-08-27T15:29:35;98548.16;;;30.81;48.39
23446;BME280;11895;48.738;9.320;2022-08-27T15:32:04;98554.38;;;30.48;49.91
23446;BME280;11895;48.738;9.320;2022-08-27T15:34:31;98549.41;;;30.09;50.06
23446;BME280;11895;48.738;9.320;2022-08-27T15:36:59;98549.78;;;29.78;51.48
23446;BME280;11895;48.738;9.320;2022-08-27T15:39:26;98547.81;;;29.72;53.33
23446;BME280;11895;48.738;9.320;2022-08-27T15:41:53;98547.16;;;29.98;51.50
23446;BME280;11895;48.738;9.320;2022-08-27T15:44:34;98541.59;;;30.19;51.23
23446;BME280;11895;48.738;9.320;2022-08-27T15:47:02;98542.13;;;30.08;51.97